sensor_id;sensor_type;location;lat;lon;timestamp;pressure;altitude;pressure_sealevel;temperature;humidity
45467;BME280;31212;49.734;8.490;2022-11-02T00:01:38;101077.34;;;8.92;90.67
45467;BME280;31212;49.734;8.490;2022-11-02T00:04:05;101068.84;;;8.98;90.75
45467;BME280;31212;49.734;8.490;2022-11-02T00:06:32;101072.44;;;9.06;90.49
45467;BME280;31212;49.734;8.490;2022-11-02T00:08:58;101076.75;;;9.04;90.19
45467;BME280;31212;49.734;8.490;2022-11-02T00:11:25;101067.06;;;8.97;89.96
45467;BME280;31212;49.734;8.490;2022-11-02T00:13:52;101069.66;;;8.97;89.99
45467;BME280;31212;49.734;8.490;2022-11-02T00:16:21;101066.84;;;8.86;89.97
45467;BME280;31212;49.734;8.490;2022-11-02T00:18:51;101067.66;;;8.84;90.05
45467;BME280;31212;49.734;8.490;2022-11-02T00:21:20;101060.00;;;8.88;90.15
45467;BME280;31212;49.734;8.490;2022-11-02T00:23:48;101059.06;;;8.85;90.27
45467;BME280;31212;49.734;8.490;2022-11-02T00:26:15;101061.72;;;8.88;90.27
45467;BME280;31212;49.734;8.490;2022-11-02T00:28:43;101055.75;;;8.92;90.22
45467;BME280;31212;49.734;8.490;2022-11-02T00:31:10;101048.94;;;8.96;90.08
45467;BME280;31212;49.734;8.490;2022-11-02T00:33:38;101045.56;;;9.01;89.83
45467;BME280;31212;49.734;8.490;2022-11-02T00:36:05;101045.56;;;9.00;89.63
45467;BME280;31212;49.734;8.490;2022-11-02T00:38:31;101043.78;;;8.99;89.56
45467;BME280;31212;49.734;8.490;2022-11-02T00:40:58;101042.13;;;9.01;89.78
45467;BME280;31212;49.734;8.490;2022-11-02T00:43:25;101044.94;;;9.12;89.43
45467;BME280;31212;49.734;8.490;2022-11-02T00:45:51;101032.00;;;9.13;89.17
45467;BME280;31212;49.734;8.490;2022-11-02T00:48:18;101021.44;;;9.02;89.13
45467;BME280;31212;49.734;8.490;2022-11-02T00:50:47;101047.50;;;9.12;89.58
45467;BME280;31212;49.734;8.490;2022-11-02T00:53:14;101034.53;;;9.10;88.84
45467;BME280;31212;49.734;8.490;2022-11-02T00:55:48;101030.19;;;9.09;89.09
45467;BME280;31212;49.734;8.490;2022-11-02T00:58:15;101034.50;;;9.08;89.24
45467;BME280;31212;49.734;8.490;2022-11-02T01:00:42;101035.38;;;9.09;88.89
45467;BME280;31212;49.734;8.490;2022-11-02T01:03:08;101035.44;;;9.14;89.13
45467;BME280;31212;49.734;8.490;2022-11-02T01:05:35;101032.84;;;9.12;89.17
45467;BME280;31212;49.734;8.490;2022-11-02T01:08:03;101038.97;;;9.16;89.35
45467;BME280;31212;49.734;8.490;2022-11-02T01:10:30;101032.19;;;9.22;89.23
45467;BME280;31212;49.734;8.490;2022-11-02T01:12:59;101031.31;;;9.22;88.83
45467;BME280;31212;49.734;8.490;2022-11-02T01:15:26;101015.81;;;9.25;88.47
45467;BME280;31212;49.734;8.490;2022-11-02T01:17:53;101014.22;;;9.32;88.59
45467;BME280;31212;49.734;8.490;2022-11-02T01:20:19;101009.06;;;9.33;88.57
45467;BME280;31212;49.734;8.490;2022-11-02T01:22:46;101009.88;;;9.32;88.40
45467;BME280;31212;49.734;8.490;2022-11-02T01:25:13;101009.09;;;9.36;88.15
45467;BME280;31212;49.734;8.490;2022-11-02T01:27:40;101002.38;;;9.46;87.75
45467;BME280;31212;49.734;8.490;2022-11-02T01:30:07;100999.06;;;9.56;87.41
45467;BME280;31212;49.734;8.490;2022-11-02T01:32:35;100993.06;;;9.59;87.21
45467;BME280;31212;49.734;8.490;2022-11-02T01:35:01;100992.38;;;9.68;87.04
45467;BME280;31212;49.734;8.490;2022-11-02T01:37:28;100995.63;;;9.56;87.07
45467;BME280;31212;49.734;8.490;2022-11-02T01:39:54;101000.78;;;9.53;86.92
45467;BME280;31212;49.734;8.490;2022-11-02T01:42:24;101010.97;;;9.43;87.29
45467;BME280;31212;49.734;8.490;2022-11-02T01:44:52;101022.16;;;9.41;87.57
45467;BME280;31212;49.734;8.490;2022-11-02T01:47:23;101027.38;;;9.44;87.57
45467;BME280;31212;49.734;8.490;2022-11-02T01:49:54;101016.19;;;9.45;87.77
45467;BME280;31212;49.734;8.490;2022-11-02T01:52:24;101018.63;;;9.37;87.61
45467;BME280;31212;49.734;8.490;2022-11-02T01:54:55;101017.69;;;9.34;87.71
45467;BME280;31212;49.734;8.490;2022-11-02T01:57:24;101018.44;;;9.26;87.74
45467;BME280;31212;49.734;8.490;2022-11-02T01:59:58;101036.56;;;9.26;88.12
45467;BME280;31212;49.734;8.490;2022-11-02T02:02:26;101035.72;;;9.26;88.42
45467;BME280;31212;49.734;8.490;2022-11-02T02:04:57;101021.00;;;9.25;88.22
45467;BME280;31212;49.734;8.490;2022-11-02T02:07:26;101020.22;;;9.31;88.27
45467;BME280;31212;49.734;8.490;2022-11-02T02:09:53;101016.97;;;9.41;88.29
45467;BME280;31212;49.734;8.490;2022-11-02T02:12:21;101011.81;;;9.42;87.56
45467;BME280;31212;49.734;8.490;2022-11-02T02:14:50;101011.94;;;9.50;87.41
45467;BME280;31212;49.734;8.490;2022-11-02T02:17:27;101006.59;;;9.39;87.67
45467;BME280;31212;49.734;8.490;2022-11-02T02:19:59;101014.31;;;9.38;88.04
45467;BME280;31212;49.734;8.490;2022-11-02T02:22:51;101017.78;;;9.38;88.29
45467;BME280;31212;49.734;8.490;2022-11-02T02:25:29;101010.84;;;9.37;88.01
45467;BME280;31212;49.734;8.490;2022-11-02T02:28:15;101018.66;;;9.39;88.59
45467;BME280;31212;49.734;8.490;2022-11-02T02:30:49;101019.56;;;9.41;88.55
45467;BME280;31212;49.734;8.490;2022-11-02T02:33:23;101026.44;;;9.40;88.90
45467;BME280;31212;49.734;8.490;2022-11-02T02:35:57;101028.19;;;9.41;88.66
45467;BME280;31212;49.734;8.490;2022-11-02T02:38:26;101023.94;;;9.45;88.51
45467;BME280;31212;49.734;8.490;2022-11-02T02:40:57;101010.84;;;9.37;88.61
45467;BME280;31212;49.734;8.490;2022-11-02T02:43:31;101016.91;;;9.38;89.17
45467;BME280;31212;49.734;8.490;2022-11-02T02:46:04;101024.78;;;9.44;89.49
45467;BME280;31212;49.734;8.490;2022-11-02T02:48:33;101027.34;;;9.42;89.08
45467;BME280;31212;49.734;8.490;2022-11-02T02:51:04;101024.91;;;9.50;89.59
45467;BME280;31212;49.734;8.490;2022-11-02T02:53:37;101023.16;;;9.49;89.51
45467;BME280;31212;49.734;8.490;2022-11-02T02:56:06;101024.84;;;9.47;89.38
45467;BME280;31212;49.734;8.490;2022-11-02T02:58:40;101031.78;;;9.50;89.43
45467;BME280;31212;49.734;8.490;2022-11-02T03:01:10;101031.72;;;9.43;89.93
45467;BME280;31212;49.734;8.490;2022-11-02T03:03:39;101027.25;;;9.38;90.23
45467;BME280;31212;49.734;8.490;2022-11-02T03:06:15;101032.53;;;9.41;89.86
45467;BME280;31212;49.734;8.490;2022-11-02T03:08:55;101019.66;;;9.47;89.78
45467;BME280;31212;49.734;8.490;2022-11-02T03:11:30;101021.44;;;9.51;90.11
45467;BME280;31212;49.734;8.490;2022-11-02T03:14:11;101020.56;;;9.49;89.75
45467;BME280;31212;49.734;8.490;2022-11-02T03:16:52;101014.50;;;9.49;90.40
45467;BME280;31212;49.734;8.490;2022-11-02T03:19:23;101021.34;;;9.45;90.53
45467;BME280;31212;49.734;8.490;2022-11-02T03:21:59;101020.63;;;9.54;90.06
45467;BME280;31212;49.734;8.490;2022-11-02T03:24:32;101020.75;;;9.60;89.85
45467;BME280;31212;49.734;8.490;2022-11-02T03:27:12;101019.97;;;9.66;90.53
45467;BME280;31212;49.734;8.490;2022-11-02T03:29:48;101007.88;;;9.66;90.33
45467;BME280;31212;49.734;8.490;2022-11-02T03:32:20;101007.03;;;9.67;90.18
45467;BME280;31212;49.734;8.490;2022-11-02T03:34:51;101013.03;;;9.65;89.96
45467;BME280;31212;49.734;8.490;2022-11-02T03:37:24;101005.25;;;9.65;89.32
45467;BME280;31212;49.734;8.490;2022-11-02T03:39:56;101015.59;;;9.63;89.67
45467;BME280;31212;49.734;8.490;2022-11-02T03:42:26;101024.22;;;9.62;89.48
45467;BME280;31212;49.734;8.490;2022-11-02T03:44:57;101030.22;;;9.59;89.78
45467;BME280;31212;49.734;8.490;2022-11-02T03:47:29;101037.25;;;9.64;90.09
45467;BME280;31212;49.734;8.490;2022-11-02T03:50:00;101043.16;;;9.56;89.57
45467;BME280;31212;49.734;8.490;2022-11-02T03:52:31;101053.44;;;9.52;90.18
45467;BME280;31212;49.734;8.490;2022-11-02T03:55:03;101059.41;;;9.46;89.74
45467;BME280;31212;49.734;8.490;2022-11-02T03:57:35;101068.81;;;9.41;90.48
45467;BME280;31212;49.734;8.490;2022-11-02T04:00:10;101071.84;;;9.20;90.66
45467;BME280;31212;49.734;8.490;2022-11-02T04:02:41;101084.91;;;9.24;90.93
45467;BME280;31212;49.734;8.490;2022-11-02T04:05:10;101100.50;;;9.28;91.48
45467;BME280;31212;49.734;8.490;2022-11-02T04:07:40;101104.22;;;9.42;91.00
45467;BME280;31212;49.734;8.490;2022-11-02T04:10:28;101091.50;;;9.53;90.96
45467;BME280;31212;49.734;8.490;2022-11-02T04:12:55;101087.22;;;9.56;90.59
45467;BME280;31212;49.734;8.490;2022-11-02T04:15:41;101077.06;;;9.70;90.39
45467;BME280;31212;49.734;8.490;2022-11-02T04:18:08;101070.97;;;9.67;89.75
45467;BME280;31212;49.734;8.490;2022-11-02T04:20:52;101072.00;;;9.75;89.56
45467;BME280;31212;49.734;8.490;2022-11-02T04:23:19;101078.94;;;9.77;89.40
45467;BME280;31212;49.734;8.490;2022-11-02T04:26:08;101069.59;;;9.87;89.27
45467;BME280;31212;49.734;8.490;2022-11-02T04:28:41;101062.78;;;9.92;89.32
45467;BME280;31212;49.734;8.490;2022-11-02T04:31:08;101069.75;;;9.97;89.27
45467;BME280;31212;49.734;8.490;2022-11-02T04:33:37;101070.63;;;9.97;89.12
45467;BME280;31212;49.734;8.490;2022-11-02T04:36:14;101065.53;;;10.02;88.93
45467;BME280;31212;49.734;8.490;2022-11-02T04:38:43;101074.13;;;9.99;88.80
45467;BME280;31212;49.734;8.490;2022-11-02T04:41:38;101088.03;;;10.03;88.92
45467;BME280;31212;49.734;8.490;2022-11-02T04:44:22;101088.06;;;10.06;88.56
45467;BME280;31212;49.734;8.490;2022-11-02T04:46:56;101089.03;;;10.11;88.40
45467;BME280;31212;49.734;8.490;2022-11-02T04:49:26;101089.84;;;10.08;88.35
45467;BME280;31212;49.734;8.490;2022-11-02T04:51:53;101097.50;;;10.02;88.68
45467;BME280;31212;49.734;8.490;2022-11-02T04:54:20;101093.06;;;9.95;88.74
45467;BME280;31212;49.734;8.490;2022-11-02T04:56:51;101079.94;;;9.86;88.56
45467;BME280;31212;49.734;8.490;2022-11-02T04:59:21;101083.38;;;9.85;88.88
45467;BME280;31212;49.734;8.490;2022-11-02T05:01:48;101089.00;;;9.59;88.76
45467;BME280;31212;49.734;8.490;2022-11-02T05:04:16;101099.97;;;9.46;89.01
45467;BME280;31212;49.734;8.490;2022-11-02T05:06:44;101105.06;;;9.39;89.57
45467;BME280;31212;49.734;8.490;2022-11-02T05:09:11;101112.84;;;9.39;89.37
45467;BME280;31212;49.734;8.490;2022-11-02T05:11:42;101117.94;;;9.36;89.97
45467;BME280;31212;49.734;8.490;2022-11-02T05:14:09;101113.66;;;9.37;89.91
45467;BME280;31212;49.734;8.490;2022-11-02T05:16:36;101123.00;;;9.29;90.18
45467;BME280;31212;49.734;8.490;2022-11-02T05:19:02;101116.94;;;9.30;90.56
45467;BME280;31212;49.734;8.490;2022-11-02T05:21:30;101116.88;;;9.26;90.65
45467;BME280;31212;49.734;8.490;2022-11-02T05:23:57;101120.41;;;9.29;90.25
45467;BME280;31212;49.734;8.490;2022-11-02T05:26:24;101126.22;;;9.18;90.72
45467;BME280;31212;49.734;8.490;2022-11-02T05:28:51;101133.06;;;9.15;90.81
45467;BME280;31212;49.734;8.490;2022-11-02T05:31:18;101133.84;;;9.12;91.37
45467;BME280;31212;49.734;8.490;2022-11-02T05:33:47;101137.53;;;9.22;91.71
45467;BME280;31212;49.734;8.490;2022-11-02T05:36:17;101136.81;;;9.29;91.37
45467;BME280;31212;49.734;8.490;2022-11-02T05:38:51;101133.34;;;9.29;91.07
45467;BME280;31212;49.734;8.490;2022-11-02T05:41:18;101139.41;;;9.29;91.62
45467;BME280;31212;49.734;8.490;2022-11-02T05:43:45;101138.63;;;9.33;91.07
45467;BME280;31212;49.734;8.490;2022-11-02T05:46:13;101145.47;;;9.31;91.05
45467;BME280;31212;49.734;8.490;2022-11-02T05:48:40;101140.28;;;9.31;91.01
45467;BME280;31212;49.734;8.490;2022-11-02T05:51:08;101143.56;;;9.22;90.74
45467;BME280;31212;49.734;8.490;2022-11-02T05:53:35;101160.09;;;9.28;91.18
45467;BME280;31212;49.734;8.490;2022-11-02T05:56:08;101162.91;;;9.38;91.04
45467;BME280;31212;49.734;8.490;2022-11-02T05:58:35;101169.16;;;9.50;90.70
45467;BME280;31212;49.734;8.490;2022-11-02T06:01:03;101158.97;;;9.59;90.42
45467;BME280;31212;49.734;8.490;2022-11-02T06:03:30;101157.94;;;9.49;90.49
45467;BME280;31212;49.734;8.490;2022-11-02T06:05:57;101163.09;;;9.48;90.27
45467;BME280;31212;49.734;8.490;2022-11-02T06:08:24;101164.78;;;9.47;90.18
45467;BME280;31212;49.734;8.490;2022-11-02T06:10:51;101160.41;;;9.45;90.03
45467;BME280;31212;49.734;8.490;2022-11-02T06:13:19;101161.22;;;9.42;90.38
45467;BME280;31212;49.734;8.490;2022-11-02T06:15:45;101170.56;;;9.34;90.41
45467;BME280;31212;49.734;8.490;2022-11-02T06:18:12;101176.47;;;9.26;90.25
45467;BME280;31212;49.734;8.490;2022-11-02T06:20:39;101178.19;;;9.24;90.19
45467;BME280;31212;49.734;8.490;2022-11-02T06:23:05;101185.81;;;9.18;90.33
45467;BME280;31212;49.734;8.490;2022-11-02T06:25:32;101190.94;;;9.15;90.79
45467;BME280;31212;49.734;8.490;2022-11-02T06:27:58;101195.97;;;9.09;91.07
45467;BME280;31212;49.734;8.490;2022-11-02T06:30:31;101201.78;;;8.99;90.92
45467;BME280;31212;49.734;8.490;2022-11-02T06:32:57;101193.19;;;9.01;90.74
45467;BME280;31212;49.734;8.490;2022-11-02T06:35:24;101202.75;;;9.04;91.36
45467;BME280;31212;49.734;8.490;2022-11-02T06:37:51;101207.13;;;9.06;91.75
45467;BME280;31212;49.734;8.490;2022-11-02T06:40:17;101207.88;;;9.01;91.66
45467;BME280;31212;49.734;8.490;2022-11-02T06:42:44;101218.44;;;9.10;91.58
45467;BME280;31212;49.734;8.490;2022-11-02T06:45:10;101232.50;;;9.21;91.51
45467;BME280;31212;49.734;8.490;2022-11-02T06:47:38;101230.94;;;9.30;91.66
45467;BME280;31212;49.734;8.490;2022-11-02T06:50:05;101238.16;;;9.45;91.69
45467;BME280;31212;49.734;8.490;2022-11-02T06:52:32;101235.72;;;9.51;91.45
45467;BME280;31212;49.734;8.490;2022-11-02T06:54:59;101234.06;;;9.53;91.36
45467;BME280;31212;49.734;8.490;2022-11-02T06:57:26;101237.06;;;9.74;90.90
45467;BME280;31212;49.734;8.490;2022-11-02T06:59:52;101234.50;;;9.76;90.43
45467;BME280;31212;49.734;8.490;2022-11-02T07:02:19;101231.22;;;9.86;90.47
45467;BME280;31212;49.734;8.490;2022-11-02T07:04:48;101239.16;;;9.92;90.36
45467;BME280;31212;49.734;8.490;2022-11-02T07:07:14;101237.28;;;9.85;89.97
45467;BME280;31212;49.734;8.490;2022-11-02T07:09:41;101236.41;;;9.86;90.04
45467;BME280;31212;49.734;8.490;2022-11-02T07:12:07;101238.13;;;9.84;89.61
45467;BME280;31212;49.734;8.490;2022-11-02T07:14:34;101238.13;;;9.84;89.86
45467;BME280;31212;49.734;8.490;2022-11-02T07:17:00;101243.56;;;9.98;89.59
45467;BME280;31212;49.734;8.490;2022-11-02T07:19:27;101252.09;;;9.91;89.90
45467;BME280;31212;49.734;8.490;2022-11-02T07:21:55;101254.97;;;10.06;89.22
45467;BME280;31212;49.734;8.490;2022-11-02T07:24:22;101243.91;;;10.15;89.30
45467;BME280;31212;49.734;8.490;2022-11-02T07:26:49;101247.50;;;10.23;89.04
45467;BME280;31212;49.734;8.490;2022-11-02T07:29:16;101246.94;;;10.38;89.04
45467;BME280;31212;49.734;8.490;2022-11-02T07:31:42;101238.50;;;10.52;88.67
45467;BME280;31212;49.734;8.490;2022-11-02T07:34:09;101242.13;;;10.63;87.89
45467;BME280;31212;49.734;8.490;2022-11-02T07:36:35;101230.25;;;10.76;86.79
45467;BME280;31212;49.734;8.490;2022-11-02T07:39:04;101221.66;;;10.82;86.33
45467;BME280;31212;49.734;8.490;2022-11-02T07:41:31;101214.00;;;10.89;86.21
45467;BME280;31212;49.734;8.490;2022-11-02T07:43:58;101222.09;;;11.13;85.46
45467;BME280;31212;49.734;8.490;2022-11-02T07:46:31;101211.84;;;11.23;84.48
45467;BME280;31212;49.734;8.490;2022-11-02T07:48:58;101205.03;;;11.33;84.66
45467;BME280;31212;49.734;8.490;2022-11-02T07:51:24;101205.16;;;11.41;84.06
45467;BME280;31212;49.734;8.490;2022-11-02T07:53:51;101211.34;;;11.54;83.53
45467;BME280;31212;49.734;8.490;2022-11-02T07:56:19;101209.31;;;11.99;83.22
45467;BME280;31212;49.734;8.490;2022-11-02T07:58:45;101177.34;;;13.48;81.09
45467;BME280;31212;49.734;8.490;2022-11-02T08:01:12;101046.63;;;15.13;75.64
45467;BME280;31212;49.734;8.490;2022-11-02T08:03:38;100856.97;;;16.38;69.41
45467;BME280;31212;49.734;8.490;2022-11-02T08:06:06;100736.44;;;17.38;64.42
45467;BME280;31212;49.734;8.490;2022-11-02T08:08:32;100694.38;;;18.23;61.55
45467;BME280;31212;49.734;8.490;2022-11-02T08:11:03;100655.13;;;18.84;59.05
45467;BME280;31212;49.734;8.490;2022-11-02T08:13:32;100626.41;;;18.09;58.35
45467;BME280;31212;49.734;8.490;2022-11-02T08:15:59;100644.22;;;18.66;57.61
45467;BME280;31212;49.734;8.490;2022-11-02T08:18:26;100600.72;;;18.55;56.71
45467;BME280;31212;49.734;8.490;2022-11-02T08:20:54;100630.72;;;19.12;56.39
45467;BME280;31212;49.734;8.490;2022-11-02T08:23:21;100565.22;;;19.31;54.84
45467;BME280;31212;49.734;8.490;2022-11-02T08:25:49;100527.94;;;19.72;53.61
45467;BME280;31212;49.734;8.490;2022-11-02T08:28:18;100571.16;;;19.94;53.48
45467;BME280;31212;49.734;8.490;2022-11-02T08:30:46;100523.22;;;20.10;52.62
45467;BME280;31212;49.734;8.490;2022-11-02T08:33:14;100502.53;;;19.71;52.32
45467;BME280;31212;49.734;8.490;2022-11-02T08:35:43;100537.47;;;19.49;52.83
45467;BME280;31212;49.734;8.490;2022-11-02T08:38:10;100551.41;;;18.94;53.38
45467;BME280;31212;49.734;8.490;2022-11-02T08:40:37;100539.84;;;19.57;52.50
45467;BME280;31212;49.734;8.490;2022-11-02T08:43:05;100510.06;;;19.55;51.84
45467;BME280;31212;49.734;8.490;2022-11-02T08:45:33;100515.59;;;19.19;52.23
45467;BME280;31212;49.734;8.490;2022-11-02T08:48:01;100533.72;;;19.56;52.15
45467;BME280;31212;49.734;8.490;2022-11-02T08:50:28;100515.81;;;19.94;51.16
45467;BME280;31212;49.734;8.490;2022-11-02T08:52:55;100467.88;;;19.56;51.01
45467;BME280;31212;49.734;8.490;2022-11-02T08:55:21;100486.31;;;19.56;51.17
45467;BME280;31212;49.734;8.490;2022-11-02T08:57:49;100502.53;;;19.71;51.19
45467;BME280;31212;49.734;8.490;2022-11-02T09:00:18;100478.97;;;19.39;51.02
45467;BME280;31212;49.734;8.490;2022-11-02T09:02:57;100460.91;;;18.70;51.33
45467;BME280;31212;49.734;8.490;2022-11-02T09:05:25;100525.56;;;18.77;52.09
45467;BME280;31212;49.734;8.490;2022-11-02T09:07:54;100534.88;;;19.19;51.95
45467;BME280;31212;49.734;8.490;2022-11-02T09:10:20;100464.03;;;18.83;51.09
45467;BME280;31212;49.734;8.490;2022-11-02T09:12:46;100479.97;;;18.77;51.20
45467;BME280;31212;49.734;8.490;2022-11-02T09:15:13;100506.78;;;17.95;52.40
45467;BME280;31212;49.734;8.490;2022-11-02T09:17:40;100619.44;;;17.69;54.81
45467;BME280;31212;49.734;8.490;2022-11-02T09:20:07;100625.94;;;17.11;55.60
45467;BME280;31212;49.734;8.490;2022-11-02T09:22:35;100696.47;;;16.25;57.56
45467;BME280;31212;49.734;8.490;2022-11-02T09:25:01;100723.25;;;15.85;58.52
45467;BME280;31212;49.734;8.490;2022-11-02T09:27:28;100751.44;;;15.63;58.99
45467;BME280;31212;49.734;8.490;2022-11-02T09:29:54;100815.13;;;15.62;60.13
45467;BME280;31212;49.734;8.490;2022-11-02T09:32:21;100795.34;;;15.36;60.01
45467;BME280;31212;49.734;8.490;2022-11-02T09:34:47;100838.84;;;15.45;61.00
45467;BME280;31212;49.734;8.490;2022-11-02T09:37:16;100800.63;;;15.28;60.13
45467;BME280;31212;49.734;8.490;2022-11-02T09:39:44;100822.56;;;15.13;60.61
45467;BME280;31212;49.734;8.490;2022-11-02T09:42:15;100816.50;;;15.10;60.63
45467;BME280;31212;49.734;8.490;2022-11-02T09:44:49;100852.91;;;15.31;60.91
45467;BME280;31212;49.734;8.490;2022-11-02T09:47:17;100832.91;;;15.27;60.75
45467;BME280;31212;49.734;8.490;2022-11-02T09:49:45;100783.25;;;15.24;59.58
45467;BME280;31212;49.734;8.490;2022-11-02T09:52:15;100785.44;;;15.63;58.90
45467;BME280;31212;49.734;8.490;2022-11-02T09:54:49;100797.88;;;16.19;58.79
45467;BME280;31212;49.734;8.490;2022-11-02T09:57:25;100696.09;;;16.48;56.73
45467;BME280;31212;49.734;8.490;2022-11-02T09:59:53;100684.31;;;17.21;55.30
45467;BME280;31212;49.734;8.490;2022-11-02T10:02:26;100612.34;;;18.11;53.22
45467;BME280;31212;49.734;8.490;2022-11-02T10:05:09;100513.44;;;19.31;50.07
45467;BME280;31212;49.734;8.490;2022-11-02T10:07:56;100479.94;;;19.90;48.82
45467;BME280;31212;49.734;8.490;2022-11-02T10:10:31;100361.34;;;19.66;47.19
45467;BME280;31212;49.734;8.490;2022-11-02T10:13:05;100349.81;;;20.18;46.40
45467;BME280;31212;49.734;8.490;2022-11-02T10:15:36;100350.13;;;20.32;46.17
45467;BME280;31212;49.734;8.490;2022-11-02T10:18:07;100349.31;;;20.98;45.35
45467;BME280;31212;49.734;8.490;2022-11-02T10:20:40;100294.66;;;21.64;43.97
45467;BME280;31212;49.734;8.490;2022-11-02T10:23:14;100263.50;;;22.28;42.97
45467;BME280;31212;49.734;8.490;2022-11-02T10:25:45;100214.19;;;21.71;42.16
45467;BME280;31212;49.734;8.490;2022-11-02T10:28:14;100234.66;;;21.26;42.69
45467;BME280;31212;49.734;8.490;2022-11-02T10:30:43;100227.34;;;21.12;42.50
45467;BME280;31212;49.734;8.490;2022-11-02T10:33:12;100258.81;;;21.58;42.44
45467;BME280;31212;49.734;8.490;2022-11-02T10:35:46;100267.78;;;21.33;42.87
45467;BME280;31212;49.734;8.490;2022-11-02T10:38:23;100278.72;;;21.24;43.01
45467;BME280;31212;49.734;8.490;2022-11-02T10:41:18;100321.31;;;21.37;43.54
45467;BME280;31212;49.734;8.490;2022-11-02T10:44:01;100294.63;;;20.13;44.34
45467;BME280;31212;49.734;8.490;2022-11-02T10:46:44;100388.41;;;19.45;46.48
45467;BME280;31212;49.734;8.490;2022-11-02T10:49:22;100474.72;;;19.07;48.39
45467;BME280;31212;49.734;8.490;2022-11-02T10:51:55;100460.63;;;18.79;48.35
45467;BME280;31212;49.734;8.490;2022-11-02T10:54:22;100473.19;;;18.40;49.06
45467;BME280;31212;49.734;8.490;2022-11-02T10:56:51;100496.50;;;18.21;49.53
45467;BME280;31212;49.734;8.490;2022-11-02T10:59:19;100549.78;;;17.90;50.78
45467;BME280;31212;49.734;8.490;2022-11-02T11:02:07;100568.97;;;17.93;51.26
45467;BME280;31212;49.734;8.490;2022-11-02T11:04:35;100587.94;;;18.06;51.54
45467;BME280;31212;49.734;8.490;2022-11-02T11:07:04;100573.44;;;17.88;51.59
45467;BME280;31212;49.734;8.490;2022-11-02T11:09:36;100515.84;;;17.82;50.59
45467;BME280;31212;49.734;8.490;2022-11-02T11:12:14;100565.09;;;17.72;51.70
45467;BME280;31212;49.734;8.490;2022-11-02T11:14:46;100616.16;;;17.98;51.96
45467;BME280;31212;49.734;8.490;2022-11-02T11:17:16;100502.94;;;17.73;50.64
45467;BME280;31212;49.734;8.490;2022-11-02T11:19:47;100461.84;;;17.70;49.81
45467;BME280;31212;49.734;8.490;2022-11-02T11:22:24;100507.59;;;17.61;50.70
45467;BME280;31212;49.734;8.490;2022-11-02T11:24:51;100517.16;;;17.26;51.16
45467;BME280;31212;49.734;8.490;2022-11-02T11:27:20;100563.66;;;17.59;51.33
45467;BME280;31212;49.734;8.490;2022-11-02T11:29:49;100465.59;;;17.61;49.87
45467;BME280;31212;49.734;8.490;2022-11-02T11:32:18;100469.94;;;17.26;50.21
45467;BME280;31212;49.734;8.490;2022-11-02T11:34:52;100512.19;;;17.53;50.47
45467;BME280;31212;49.734;8.490;2022-11-02T11:37:21;100522.25;;;17.32;51.48
45467;BME280;31212;49.734;8.490;2022-11-02T11:39:51;100542.69;;;17.57;51.14
45467;BME280;31212;49.734;8.490;2022-11-02T11:42:22;100523.25;;;18.02;50.39
45467;BME280;31212;49.734;8.490;2022-11-02T11:44:55;100471.06;;;18.21;49.17
45467;BME280;31212;49.734;8.490;2022-11-02T11:47:23;100461.00;;;18.37;48.85
45467;BME280;31212;49.734;8.490;2022-11-02T11:49:51;100448.91;;;17.98;49.13
45467;BME280;31212;49.734;8.490;2022-11-02T11:52:21;100481.28;;;17.99;49.75
45467;BME280;31212;49.734;8.490;2022-11-02T11:54:54;100486.91;;;17.83;50.01
45467;BME280;31212;49.734;8.490;2022-11-02T11:57:28;100478.88;;;17.88;49.68
45467;BME280;31212;49.734;8.490;2022-11-02T11:59:56;100409.09;;;18.14;48.48
45467;BME280;31212;49.734;8.490;2022-11-02T12:02:27;100392.06;;;17.96;48.25
45467;BME280;31212;49.734;8.490;2022-11-02T12:05:00;100374.19;;;17.76;48.08
45467;BME280;31212;49.734;8.490;2022-11-02T12:07:36;100400.31;;;18.13;48.38
45467;BME280;31212;49.734;8.490;2022-11-02T12:10:10;100433.44;;;18.51;48.34
45467;BME280;31212;49.734;8.490;2022-11-02T12:12:53;100365.09;;;18.21;47.80
45467;BME280;31212;49.734;8.490;2022-11-02T12:15:34;100392.13;;;18.24;48.03
45467;BME280;31212;49.734;8.490;2022-11-02T12:18:14;100379.69;;;17.66;48.53
45467;BME280;31212;49.734;8.490;2022-11-02T12:20:55;100430.44;;;17.67;49.40
45467;BME280;31212;49.734;8.490;2022-11-02T12:23:44;100421.34;;;18.13;48.51
45467;BME280;31212;49.734;8.490;2022-11-02T12:26:23;100431.44;;;18.59;48.33
45467;BME280;31212;49.734;8.490;2022-11-02T12:29:01;100453.53;;;19.11;47.96
45467;BME280;31212;49.734;8.490;2022-11-02T12:31:35;100366.94;;;19.04;46.80
45467;BME280;31212;49.734;8.490;2022-11-02T12:34:21;100310.38;;;18.90;45.93
45467;BME280;31212;49.734;8.490;2022-11-02T12:37:03;100335.13;;;18.56;46.78
45467;BME280;31212;49.734;8.490;2022-11-02T12:39:47;100309.94;;;18.21;46.92
45467;BME280;31212;49.734;8.490;2022-11-02T12:42:25;100365.25;;;17.83;47.89
45467;BME280;31212;49.734;8.490;2022-11-02T12:45:16;100387.53;;;17.34;49.13
45467;BME280;31212;49.734;8.490;2022-11-02T12:47:54;100472.91;;;17.48;50.39
45467;BME280;31212;49.734;8.490;2022-11-02T12:50:29;100450.56;;;17.66;49.67
45467;BME280;31212;49.734;8.490;2022-11-02T12:53:08;100434.03;;;17.63;49.58
45467;BME280;31212;49.734;8.490;2022-11-02T12:55:44;100395.75;;;17.54;49.19
45467;BME280;31212;49.734;8.490;2022-11-02T12:58:16;100458.72;;;17.56;50.13
45467;BME280;31212;49.734;8.490;2022-11-02T13:00:48;100482.59;;;17.45;50.52
45467;BME280;31212;49.734;8.490;2022-11-02T13:03:27;100456.53;;;17.39;50.40
45467;BME280;31212;49.734;8.490;2022-11-02T13:05:59;100436.44;;;17.00;50.58
45467;BME280;31212;49.734;8.490;2022-11-02T13:08:35;100450.72;;;16.85;50.71
45467;BME280;31212;49.734;8.490;2022-11-02T13:11:09;100480.59;;;16.78;51.41
45467;BME280;31212;49.734;8.490;2022-11-02T13:13:41;100501.38;;;16.87;51.55